createdAt,value
2018-05-09T00:02:01.665Z,94963.65
2018-05-09T00:04:30.061Z,94962.04
2018-05-09T00:06:58.398Z,94961.77
2018-05-09T00:09:26.819Z,94965.76
2018-05-09T00:11:55.257Z,94965.00
2018-05-09T00:14:23.572Z,94967.58
2018-05-09T00:16:51.912Z,94962.23
2018-05-09T00:19:20.234Z,94962.59
2018-05-09T00:21:48.569Z,94966.44
2018-05-09T00:24:16.880Z,94965.17
2018-05-09T00:26:45.270Z,94958.33
2018-05-09T00:29:13.633Z,94957.92
2018-05-09T00:31:41.949Z,94958.23
2018-05-09T00:34:10.301Z,94961.95
2018-05-09T00:36:38.605Z,94967.19
2018-05-09T00:39:06.947Z,94963.23
2018-05-09T00:41:35.339Z,94963.03
2018-05-09T00:44:03.663Z,94957.08
2018-05-09T00:46:31.976Z,94958.72
2018-05-09T00:49:00.353Z,94960.25
2018-05-09T00:51:28.664Z,94958.58
2018-05-09T00:57:01.642Z,94958.54
2018-05-09T00:59:29.982Z,94959.50
2018-05-09T01:01:58.291Z,94963.58
2018-05-09T01:04:26.625Z,94965.52
2018-05-09T01:06:54.949Z,94961.16
2018-05-09T01:09:23.280Z,94954.73
2018-05-09T01:11:51.605Z,94950.79
2018-05-09T01:14:19.945Z,94948.99
2018-05-09T01:16:48.360Z,94951.97
2018-05-09T01:19:16.697Z,94947.05
2018-05-09T01:21:45.018Z,94947.39
2018-05-09T01:24:13.366Z,94952.20
2018-05-09T01:26:41.669Z,94953.36
2018-05-09T01:29:10.044Z,94954.45
2018-05-09T01:31:38.373Z,94954.81
2018-05-09T01:34:06.712Z,94951.80
2018-05-09T01:36:35.078Z,94951.38
2018-05-09T01:39:03.439Z,94956.10
2018-05-09T01:41:31.733Z,94959.20
2018-05-09T01:44:00.056Z,94951.89
2018-05-09T01:46:28.394Z,94945.31
2018-05-09T01:48:56.723Z,94951.11
2018-05-09T01:51:25.054Z,94955.48
2018-05-09T01:53:53.422Z,94951.84
2018-05-09T01:56:21.810Z,94954.58
2018-05-09T01:58:50.125Z,94955.81
2018-05-09T02:01:18.461Z,94955.81
2018-05-09T02:03:46.788Z,94948.89
2018-05-09T02:06:15.112Z,94947.68
2018-05-09T02:08:43.494Z,94946.38
2018-05-09T02:11:11.820Z,94947.73
2018-05-09T02:13:40.238Z,94943.45
2018-05-09T02:16:08.572Z,94943.31
2018-05-09T02:18:36.877Z,94949.34
2018-05-09T02:21:05.282Z,94950.96
2018-05-09T02:23:33.606Z,94942.66
2018-05-09T02:26:01.914Z,94939.42
2018-05-09T02:28:30.252Z,94928.73
2018-05-09T02:30:58.599Z,94927.74
2018-05-09T02:33:26.960Z,94930.55
2018-05-09T02:35:55.274Z,94927.84
2018-05-09T02:38:23.606Z,94928.19
2018-05-09T02:40:51.990Z,94926.05
2018-05-09T02:43:20.370Z,94923.74
2018-05-09T02:45:48.758Z,94927.12
2018-05-09T02:48:17.097Z,94926.41
2018-05-09T02:50:45.506Z,94926.13
2018-05-09T02:53:13.891Z,94934.20
2018-05-09T02:55:42.270Z,94938.73
2018-05-09T02:58:10.610Z,94940.18
2018-05-09T03:00:39.125Z,94934.14
2018-05-09T03:03:07.464Z,94935.11
2018-05-09T03:05:35.764Z,94926.73
2018-05-09T03:08:04.106Z,94926.56
2018-05-09T03:10:32.413Z,94925.72
2018-05-09T03:13:00.800Z,94930.86
2018-05-09T03:15:29.136Z,94929.55
2018-05-09T03:17:57.563Z,94929.87
2018-05-09T03:20:25.942Z,94927.54
2018-05-09T03:22:54.256Z,94928.69
2018-05-09T03:25:22.591Z,94926.61
2018-05-09T03:27:50.896Z,94932.05
2018-05-09T03:30:19.237Z,94939.70
2018-05-09T03:32:47.563Z,94937.88
2018-05-09T03:35:15.907Z,94936.59
2018-05-09T03:37:44.286Z,94940.86
2018-05-09T03:40:12.621Z,94940.63
2018-05-09T03:42:40.929Z,94943.73
2018-05-09T03:45:09.265Z,94946.90
2018-05-09T03:47:37.594Z,94944.91
2018-05-09T03:50:05.938Z,94945.94
2018-05-09T03:52:34.260Z,94950.70
2018-05-09T03:55:02.630Z,94950.05
2018-05-09T03:57:30.941Z,94946.88
2018-05-09T03:59:59.317Z,94944.72
2018-05-09T04:02:44.425Z,94937.56
2018-05-09T04:05:24.669Z,94936.36
2018-05-09T04:08:04.774Z,94937.48
2018-05-09T04:10:33.137Z,94932.73
2018-05-09T04:13:01.527Z,94931.22
2018-05-09T04:15:29.849Z,94942.19
2018-05-09T04:17:58.280Z,94937.81
2018-05-09T04:20:26.676Z,94943.42
2018-05-09T04:22:55.017Z,94943.09
2018-05-09T04:25:23.432Z,94950.22
2018-05-09T04:27:51.764Z,94946.57
2018-05-09T04:30:20.084Z,94949.26
2018-05-09T04:32:48.462Z,94949.08
2018-05-09T04:35:16.794Z,94957.93
2018-05-09T04:37:45.228Z,94952.97
2018-05-09T04:40:13.534Z,94943.66
2018-05-09T04:42:41.881Z,94939.16
2018-05-09T04:45:10.190Z,94940.52
2018-05-09T04:47:38.515Z,94944.14
2018-05-09T04:50:06.842Z,94949.97
2018-05-09T04:52:35.169Z,94944.56
2018-05-09T04:55:03.497Z,94935.78
2018-05-09T04:57:31.913Z,94927.88
2018-05-09T05:00:00.302Z,94929.95
2018-05-09T05:02:28.638Z,94934.16
2018-05-09T05:04:56.968Z,94934.26
2018-05-09T05:07:25.370Z,94928.83
2018-05-09T05:09:53.703Z,94937.41
2018-05-09T05:12:22.076Z,94925.74
2018-05-09T05:14:50.420Z,94931.50
2018-05-09T05:17:18.737Z,94930.47
2018-05-09T05:19:47.140Z,94936.30
2018-05-09T05:22:15.436Z,94926.50
2018-05-09T05:24:43.872Z,94929.53
2018-05-09T05:27:12.252Z,94928.58
2018-05-09T05:29:40.559Z,94933.61
2018-05-09T05:32:08.934Z,94931.36
2018-05-09T05:34:37.285Z,94928.70
2018-05-09T05:37:05.634Z,94929.68
2018-05-09T05:39:34.043Z,94933.19
2018-05-09T05:42:02.399Z,94927.55
2018-05-09T05:44:30.709Z,94936.33
2018-05-09T05:46:59.065Z,94936.65
2018-05-09T05:49:27.380Z,94945.97
2018-05-09T05:51:55.744Z,94947.97
2018-05-09T05:54:24.065Z,94940.51
2018-05-09T05:56:52.397Z,94943.62
2018-05-09T05:59:20.709Z,94942.99
2018-05-09T06:01:49.082Z,94952.20
2018-05-09T06:04:17.380Z,94948.11
2018-05-09T06:06:45.713Z,94950.95
2018-05-09T06:09:14.021Z,94947.91
2018-05-09T06:11:42.448Z,94953.91
2018-05-09T06:14:10.849Z,94955.23
2018-05-09T06:16:39.156Z,94951.05
2018-05-09T06:19:07.488Z,94964.52
2018-05-09T06:21:35.865Z,94953.94
2018-05-09T06:24:04.307Z,94965.63
2018-05-09T06:26:32.520Z,94961.10
2018-05-09T06:29:00.862Z,94964.27
2018-05-09T06:31:29.161Z,94960.82
2018-05-09T06:33:57.501Z,94959.52
2018-05-09T06:36:25.814Z,94956.19
2018-05-09T06:38:54.149Z,94953.47
2018-05-09T06:41:22.481Z,94954.23
2018-05-09T06:43:50.891Z,94954.55
2018-05-09T06:46:19.158Z,94949.97
2018-05-09T06:48:47.489Z,94948.39
2018-05-09T06:51:15.812Z,94946.35
2018-05-09T06:53:44.160Z,94956.90
2018-05-09T06:56:12.606Z,94956.68
2018-05-09T06:58:40.944Z,94965.59
2018-05-09T07:01:09.280Z,94962.80
2018-05-09T07:03:37.680Z,94959.25
2018-05-09T07:06:06.028Z,94961.36
2018-05-09T07:08:34.329Z,94965.41
2018-05-09T07:11:02.710Z,94971.30
2018-05-09T07:13:31.085Z,94968.67
2018-05-09T07:15:59.460Z,94966.05
2018-05-09T07:18:27.841Z,94970.03
2018-05-09T07:20:56.199Z,94969.59
2018-05-09T07:23:24.593Z,94976.20
2018-05-09T07:25:52.924Z,94977.84
2018-05-09T07:28:21.232Z,94978.48
2018-05-09T07:30:49.570Z,94972.83
2018-05-09T07:33:17.917Z,94979.27
2018-05-09T07:35:46.250Z,94982.39
2018-05-09T07:38:14.571Z,94983.13
2018-05-09T07:40:42.900Z,94982.00
2018-05-09T07:43:11.226Z,94986.65
2018-05-09T07:45:39.598Z,94986.52
2018-05-09T07:48:07.908Z,94982.34
2018-05-09T07:50:36.347Z,94989.22
2018-05-09T07:53:04.661Z,94987.82
2018-05-09T07:55:33.142Z,94979.84
2018-05-09T07:58:01.408Z,94974.02
2018-05-09T08:00:29.719Z,94980.48
2018-05-09T08:02:58.148Z,94978.95
2018-05-09T08:05:26.539Z,94981.69
2018-05-09T08:07:54.909Z,94982.73
2018-05-09T08:10:23.225Z,94978.09
2018-05-09T08:12:51.642Z,94979.08
2018-05-09T08:15:19.897Z,94974.70
2018-05-09T08:17:48.230Z,94972.01
2018-05-09T08:20:17.205Z,94967.12
2018-05-09T08:22:45.581Z,94967.69
2018-05-09T08:25:13.958Z,94968.27
2018-05-09T08:27:42.299Z,94966.12
2018-05-09T08:30:10.620Z,94961.05
2018-05-09T08:32:38.992Z,94954.03
2018-05-09T08:35:07.384Z,94954.39
2018-05-09T08:37:35.752Z,94960.66
2018-05-09T08:40:04.122Z,94964.39
2018-05-09T08:42:32.457Z,94956.75
2018-05-09T08:45:00.778Z,94962.79
2018-05-09T08:47:29.125Z,94953.78
2018-05-09T08:49:57.437Z,94955.53
2018-05-09T08:52:26.025Z,94962.76
2018-05-09T08:54:54.337Z,94963.78
2018-05-09T08:57:22.637Z,94958.67
2018-05-09T08:59:51.028Z,94963.31
2018-05-09T09:02:19.330Z,94961.63
2018-05-09T09:04:47.723Z,94967.03
2018-05-09T09:07:16.028Z,94967.91
2018-05-09T09:09:44.457Z,94967.95
2018-05-09T09:12:12.780Z,94962.14
2018-05-09T09:14:41.118Z,94964.98
2018-05-09T09:17:09.483Z,94966.20
2018-05-09T09:19:37.826Z,94965.65
2018-05-09T09:22:06.141Z,94970.01
2018-05-09T09:24:34.478Z,94961.88
2018-05-09T09:27:02.786Z,94965.35
2018-05-09T09:29:31.714Z,94966.20
2018-05-09T09:32:00.030Z,94967.61
2018-05-09T09:34:28.354Z,94962.71
2018-05-09T09:36:56.718Z,94950.80
2018-05-09T09:39:25.113Z,94952.09
2018-05-09T09:41:53.436Z,94962.46
2018-05-09T09:44:21.749Z,94959.77
2018-05-09T09:46:50.137Z,94959.68
2018-05-09T09:49:18.535Z,94957.23
2018-05-09T09:51:46.852Z,94955.65
2018-05-09T09:54:15.172Z,94954.70
2018-05-09T09:56:43.572Z,94948.09
2018-05-09T09:59:11.884Z,94948.20
2018-05-09T10:01:40.407Z,94945.76
2018-05-09T10:04:08.619Z,94947.69
2018-05-09T10:06:37.870Z,94943.48
2018-05-09T10:09:06.270Z,94944.23
2018-05-09T10:11:34.648Z,94941.27
2018-05-09T10:14:02.965Z,94946.16
2018-05-09T10:16:31.316Z,94945.45
2018-05-09T10:18:59.665Z,94941.08
2018-05-09T10:21:27.976Z,94941.73
2018-05-09T10:23:56.437Z,94939.93
2018-05-09T10:26:24.812Z,94940.95
2018-05-09T10:28:53.144Z,94943.91
2018-05-09T10:31:21.522Z,94944.07
2018-05-09T10:33:49.780Z,94948.23
2018-05-09T10:36:18.120Z,94937.71
2018-05-09T10:38:46.460Z,94946.04
2018-05-09T10:41:14.773Z,94936.36
2018-05-09T10:43:43.108Z,94932.41
2018-05-09T10:46:11.406Z,94930.48
2018-05-09T10:48:39.754Z,94937.59
2018-05-09T10:51:08.117Z,94936.41
2018-05-09T10:53:36.512Z,94937.63
2018-05-09T10:56:04.826Z,94930.94
2018-05-09T10:58:33.165Z,94922.97
2018-05-09T11:01:01.489Z,94932.23
2018-05-09T11:03:29.845Z,94925.94
2018-05-09T11:05:58.245Z,94924.56
2018-05-09T11:08:26.589Z,94921.17
2018-05-09T11:10:54.998Z,94916.16
2018-05-09T11:13:23.317Z,94902.54
2018-05-09T11:15:51.756Z,94918.64
2018-05-09T11:18:20.141Z,94909.92
2018-05-09T11:20:48.487Z,94907.58
2018-05-09T11:23:16.822Z,94903.66
2018-05-09T11:25:46.093Z,94913.97
2018-05-09T11:28:14.409Z,94913.95
2018-05-09T11:30:42.746Z,94907.16
2018-05-09T11:33:11.056Z,94908.50
2018-05-09T11:35:39.394Z,94895.80
2018-05-09T11:38:07.705Z,94901.58
2018-05-09T11:40:36.059Z,94891.77
2018-05-09T11:43:04.425Z,94885.69
2018-05-09T11:45:32.809Z,94899.91
2018-05-09T11:48:01.198Z,94897.58
2018-05-09T11:50:29.532Z,94889.98
2018-05-09T11:52:57.976Z,94888.77
2018-05-09T11:55:26.310Z,94885.72
2018-05-09T11:57:54.628Z,94885.04
2018-05-09T12:00:23.081Z,94882.27
2018-05-09T12:02:51.388Z,94883.80
2018-05-09T12:05:19.703Z,94884.67
2018-05-09T12:07:48.034Z,94880.30
2018-05-09T12:10:16.487Z,94880.98
2018-05-09T12:12:44.863Z,94880.37
2018-05-09T12:15:13.181Z,94875.11
2018-05-09T12:17:41.505Z,94878.25
2018-05-09T12:20:09.945Z,94879.61
2018-05-09T12:22:38.285Z,94881.11
2018-05-09T12:25:06.613Z,94868.51
2018-05-09T12:27:34.964Z,94874.28
2018-05-09T12:30:03.310Z,94865.46
2018-05-09T12:32:31.649Z,94865.34
2018-05-09T12:34:59.955Z,94859.81
2018-05-09T12:37:28.332Z,94857.12
2018-05-09T12:39:56.741Z,94858.56
2018-05-09T12:42:25.168Z,94859.62
2018-05-09T12:44:53.428Z,94859.97
2018-05-09T12:47:21.777Z,94850.14
2018-05-09T12:49:50.234Z,94853.33
2018-05-09T12:52:18.578Z,94852.50
2018-05-09T12:54:46.897Z,94848.67
2018-05-09T12:57:15.265Z,94856.48
2018-05-09T12:59:43.597Z,94855.56
2018-05-09T13:02:11.935Z,94847.97
2018-05-09T13:04:40.343Z,94843.78
2018-05-09T13:07:08.815Z,94846.59
2018-05-09T13:09:37.056Z,94834.91
2018-05-09T13:12:05.440Z,94820.88
2018-05-09T13:14:33.820Z,94818.95
2018-05-09T13:17:02.389Z,94808.37
2018-05-09T13:19:30.774Z,94808.15
2018-05-09T13:21:59.090Z,94806.27
2018-05-09T13:24:27.422Z,94798.59
2018-05-09T13:26:55.871Z,94795.16
2018-05-09T13:29:24.209Z,94797.63
2018-05-09T13:31:52.606Z,94804.95
2018-05-09T13:34:20.933Z,94812.03
2018-05-09T13:36:49.245Z,94812.28
2018-05-09T13:39:17.601Z,94813.16
2018-05-09T13:41:45.977Z,94813.55
2018-05-09T13:44:14.284Z,94817.24
2018-05-09T13:46:42.616Z,94815.84
2018-05-09T13:49:10.946Z,94817.30
2018-05-09T13:51:39.326Z,94817.47
2018-05-09T13:54:07.621Z,94818.53
2018-05-09T13:56:35.984Z,94823.00
2018-05-09T13:59:04.327Z,94835.20
2018-05-09T14:01:32.736Z,94836.94
2018-05-09T14:04:01.114Z,94855.03
2018-05-09T18:09:39.926Z,94809.49
2018-05-09T18:12:08.231Z,94816.34
2018-05-09T18:14:36.664Z,94806.11
2018-05-09T18:17:04.950Z,94811.02
2018-05-09T18:19:33.332Z,94813.11
2018-05-09T18:22:01.642Z,94813.84
2018-05-09T18:24:29.954Z,94814.52
2018-05-09T18:26:58.348Z,94812.89
2018-05-09T18:29:26.653Z,94809.99
2018-05-09T18:31:54.979Z,94813.05
2018-05-09T18:34:23.293Z,94811.31
2018-05-09T18:36:51.646Z,94818.33
2018-05-09T18:39:20.019Z,94825.09
2018-05-09T18:41:48.437Z,94820.57
2018-05-09T18:44:16.756Z,94823.34
2018-05-09T18:46:45.057Z,94827.43
2018-05-09T18:49:13.352Z,94841.17
2018-05-09T18:51:41.700Z,94834.36
2018-05-09T18:54:10.183Z,94839.56
2018-05-09T18:56:38.460Z,94836.33
2018-05-09T18:59:06.849Z,94843.55
2018-05-09T19:01:35.178Z,94840.97
2018-05-09T19:04:03.515Z,94837.48
2018-05-09T19:06:31.997Z,94846.02
2018-05-09T19:09:00.287Z,94851.70
2018-05-09T19:11:28.688Z,94854.05
2018-05-09T19:13:57.017Z,94858.08
2018-05-09T19:16:25.421Z,94860.89
2018-05-09T19:18:53.761Z,94861.34
2018-05-09T19:21:22.087Z,94868.43
2018-05-09T19:23:50.516Z,94866.09
2018-05-09T19:26:18.828Z,94875.31
2018-05-09T19:28:47.195Z,94879.23
2018-05-09T19:31:15.501Z,94873.43
2018-05-09T19:33:43.830Z,94883.05
2018-05-09T19:36:12.145Z,94877.97
2018-05-09T19:38:40.670Z,94872.51
2018-05-09T19:41:08.899Z,94876.81
2018-05-09T19:43:37.237Z,94876.05
2018-05-09T19:46:05.629Z,94886.45
2018-05-09T19:48:33.964Z,94884.89
2018-05-09T19:51:02.283Z,94881.22
2018-05-09T19:53:30.669Z,94882.97
2018-05-09T19:55:59.038Z,94882.00
2018-05-09T19:58:27.357Z,94884.13
2018-05-09T20:00:55.869Z,94886.25
2018-05-09T20:03:24.105Z,94882.31
2018-05-09T20:05:52.559Z,94879.19
2018-05-09T20:08:20.853Z,94880.17
2018-05-09T20:10:49.193Z,94881.14
2018-05-09T20:13:17.501Z,94883.49
2018-05-09T20:15:45.829Z,94881.70
2018-05-09T20:18:14.133Z,94891.48
2018-05-09T20:20:42.491Z,94883.23
2018-05-09T20:23:10.892Z,94887.14
2018-05-09T20:25:39.301Z,94887.27
2018-05-09T20:28:07.645Z,94882.53
2018-05-09T20:30:41.534Z,94881.55
2018-05-09T20:33:09.828Z,94888.77
2018-05-09T20:35:38.205Z,94883.11
2018-05-09T20:38:06.524Z,94884.61
2018-05-09T20:40:34.969Z,94881.69
2018-05-09T20:43:03.276Z,94886.45
2018-05-09T20:45:31.722Z,94888.75
2018-05-09T20:48:00.030Z,94896.95
2018-05-09T20:50:28.468Z,94896.77
2018-05-09T20:52:56.775Z,94892.30
2018-05-09T20:55:28.808Z,94898.61
2018-05-09T20:57:57.148Z,94894.30
2018-05-09T21:00:25.460Z,94891.56
2018-05-09T21:02:53.804Z,94893.56
2018-05-09T21:05:22.122Z,94891.33
2018-05-09T21:07:56.228Z,94888.75
2018-05-09T21:10:24.545Z,94895.72
2018-05-09T21:12:52.881Z,94895.05
2018-05-09T21:15:21.264Z,94893.45
2018-05-09T21:17:49.876Z,94893.56
2018-05-09T21:20:18.178Z,94893.56
2018-05-09T21:22:46.541Z,94897.03
2018-05-09T21:25:14.850Z,94895.67
2018-05-09T21:27:43.259Z,94895.00
2018-05-09T21:30:11.507Z,94900.63
2018-05-09T21:32:39.855Z,94904.11
2018-05-09T21:35:08.161Z,94898.88
2018-05-09T21:37:36.520Z,94911.87
2018-05-09T21:40:04.937Z,94913.28
2018-05-09T21:42:33.257Z,94913.77
2018-05-09T21:45:01.597Z,94909.16
2018-05-09T21:47:29.904Z,94907.34
2018-05-09T21:49:58.250Z,94910.37
2018-05-09T21:52:26.568Z,94915.55
2018-05-09T21:54:54.904Z,94918.97
2018-05-09T21:57:23.226Z,94916.84
2018-05-09T21:59:51.563Z,94917.45
2018-05-09T22:02:19.890Z,94915.27
2018-05-09T22:04:48.318Z,94915.27
2018-05-09T22:07:16.640Z,94919.51
2018-05-09T22:09:45.075Z,94915.82
2018-05-09T22:12:13.457Z,94917.19
2018-05-09T22:14:41.848Z,94922.30
2018-05-09T22:17:10.215Z,94920.36
2018-05-09T22:19:38.593Z,94919.06
2018-05-09T22:22:06.935Z,94923.40
2018-05-09T22:24:35.354Z,94924.70
2018-05-09T22:27:03.731Z,94918.72
2018-05-09T22:29:32.024Z,94918.58
2018-05-09T22:32:00.379Z,94912.16
2018-05-09T22:34:28.758Z,94914.08
2018-05-09T22:36:57.103Z,94912.81
2018-05-09T22:39:25.401Z,94910.92
2018-05-09T22:41:53.733Z,94908.00
2018-05-09T22:44:22.067Z,94903.83
2018-05-09T22:46:50.446Z,94905.27
2018-05-09T22:49:18.777Z,94904.86
2018-05-09T22:51:47.125Z,94903.05
2018-05-09T22:54:15.473Z,94907.31
2018-05-09T22:56:43.852Z,94900.38
2018-05-09T22:59:12.162Z,94895.94
2018-05-09T23:01:40.619Z,94905.64
2018-05-09T23:04:08.928Z,94905.91
2018-05-09T23:06:37.236Z,94903.80
2018-05-09T23:09:05.576Z,94898.39
2018-05-09T23:11:33.887Z,94902.81
2018-05-09T23:14:02.298Z,94899.06
2018-05-09T23:16:30.693Z,94891.50
2018-05-09T23:18:59.025Z,94890.05
2018-05-09T23:21:27.431Z,94889.36
2018-05-09T23:23:55.789Z,94892.27
2018-05-09T23:26:24.081Z,94889.47
2018-05-09T23:28:52.426Z,94893.66
2018-05-09T23:31:20.741Z,94890.06
2018-05-09T23:33:49.088Z,94888.39
2018-05-09T23:36:17.386Z,94894.84
2018-05-09T23:38:45.772Z,94894.52
2018-05-09T23:41:14.093Z,94895.37
2018-05-09T23:43:42.422Z,94902.31
2018-05-09T23:46:10.728Z,94899.06
2018-05-09T23:48:39.065Z,94903.23
2018-05-09T23:51:07.379Z,94900.54
2018-05-09T23:53:35.710Z,94906.47
2018-05-09T23:56:04.109Z,94902.46
2018-05-09T23:58:32.485Z,94901.66
